sensor_id;sensor_type;location;lat;lon;timestamp;P1;durP1;ratioP1;P2;durP2;ratioP2
33505;SDS011;19843;51.040;13.782;2022-08-18T00:01:34;1.00;;;1.00;;
33505;SDS011;19843;51.040;13.782;2022-08-18T00:04:04;1.25;;;1.25;;
33505;SDS011;19843;51.040;13.782;2022-08-18T00:06:53;2.83;;;1.30;;
33505;SDS011;19843;51.040;13.782;2022-08-18T00:09:20;1.38;;;1.38;;
33505;SDS011;19843;51.040;13.782;2022-08-18T00:11:48;1.42;;;1.42;;
33505;SDS011;19843;51.040;13.782;2022-08-18T00:14:19;1.50;;;1.50;;
33505;SDS011;19843;51.040;13.782;2022-08-18T00:16:49;1.27;;;1.27;;
33505;SDS011;19843;51.040;13.782;2022-08-18T00:19:18;1.40;;;1.40;;
33505;SDS011;19843;51.040;13.782;2022-08-18T00:22:07;1.30;;;1.20;;
33505;SDS011;19843;51.040;13.782;2022-08-18T00:24:40;1.20;;;1.20;;
33505;SDS011;19843;51.040;13.782;2022-08-18T00:27:14;1.27;;;1.27;;
33505;SDS011;19843;51.040;13.782;2022-08-18T00:29:48;1.30;;;1.30;;
33505;SDS011;19843;51.040;13.782;2022-08-18T00:32:17;1.90;;;1.80;;
33505;SDS011;19843;51.040;13.782;2022-08-18T00:34:46;2.47;;;1.88;;
33505;SDS011;19843;51.040;13.782;2022-08-18T00:37:15;1.83;;;1.75;;
33505;SDS011;19843;51.040;13.782;2022-08-18T00:39:42;1.90;;;1.80;;
33505;SDS011;19843;51.040;13.782;2022-08-18T00:42:14;1.95;;;1.85;;
33505;SDS011;19843;51.040;13.782;2022-08-18T00:44:56;1.70;;;1.70;;
33505;SDS011;19843;51.040;13.782;2022-08-18T00:47:24;1.40;;;1.40;;
33505;SDS011;19843;51.040;13.782;2022-08-18T00:50:08;1.20;;;1.20;;
33505;SDS011;19843;51.040;13.782;2022-08-18T00:52:42;1.20;;;1.20;;
33505;SDS011;19843;51.040;13.782;2022-08-18T00:55:16;1.30;;;1.30;;
33505;SDS011;19843;51.040;13.782;2022-08-18T00:57:45;1.45;;;1.30;;
33505;SDS011;19843;51.040;13.782;2022-08-18T01:00:16;1.50;;;1.50;;
33505;SDS011;19843;51.040;13.782;2022-08-18T01:02:45;1.30;;;1.30;;
33505;SDS011;19843;51.040;13.782;2022-08-18T01:05:17;1.35;;;1.35;;
33505;SDS011;19843;51.040;13.782;2022-08-18T01:07:50;1.50;;;1.50;;
33505;SDS011;19843;51.040;13.782;2022-08-18T01:10:19;1.50;;;1.50;;
33505;SDS011;19843;51.040;13.782;2022-08-18T01:12:48;1.50;;;1.50;;
33505;SDS011;19843;51.040;13.782;2022-08-18T01:15:18;1.70;;;1.60;;
33505;SDS011;19843;51.040;13.782;2022-08-18T01:17:54;1.70;;;1.60;;
33505;SDS011;19843;51.040;13.782;2022-08-18T01:20:42;1.42;;;1.42;;
33505;SDS011;19843;51.040;13.782;2022-08-18T01:23:33;1.38;;;1.35;;
33505;SDS011;19843;51.040;13.782;2022-08-18T01:26:02;1.48;;;1.48;;
33505;SDS011;19843;51.040;13.782;2022-08-18T01:28:30;1.52;;;1.52;;
33505;SDS011;19843;51.040;13.782;2022-08-18T01:30:59;1.60;;;1.60;;
33505;SDS011;19843;51.040;13.782;2022-08-18T01:33:28;1.70;;;1.70;;
33505;SDS011;19843;51.040;13.782;2022-08-18T01:35:58;1.88;;;1.77;;
33505;SDS011;19843;51.040;13.782;2022-08-18T01:38:27;1.52;;;1.52;;
33505;SDS011;19843;51.040;13.782;2022-08-18T01:40:58;1.80;;;1.70;;
33505;SDS011;19843;51.040;13.782;2022-08-18T01:43:46;1.85;;;1.75;;
33505;SDS011;19843;51.040;13.782;2022-08-18T01:46:15;1.67;;;1.67;;
33505;SDS011;19843;51.040;13.782;2022-08-18T01:48:45;1.92;;;1.83;;
33505;SDS011;19843;51.040;13.782;2022-08-18T01:51:13;2.15;;;2.05;;
33505;SDS011;19843;51.040;13.782;2022-08-18T01:53:42;2.42;;;2.33;;
33505;SDS011;19843;51.040;13.782;2022-08-18T01:56:12;2.45;;;2.40;;
33505;SDS011;19843;51.040;13.782;2022-08-18T01:58:42;2.42;;;2.33;;
33505;SDS011;19843;51.040;13.782;2022-08-18T02:01:12;2.20;;;2.10;;
33505;SDS011;19843;51.040;13.782;2022-08-18T02:03:41;2.63;;;2.53;;
33505;SDS011;19843;51.040;13.782;2022-08-18T02:06:14;3.30;;;2.83;;
33505;SDS011;19843;51.040;13.782;2022-08-18T02:08:57;2.55;;;2.45;;
33505;SDS011;19843;51.040;13.782;2022-08-18T02:11:26;2.78;;;2.67;;
33505;SDS011;19843;51.040;13.782;2022-08-18T02:13:53;3.33;;;3.22;;
33505;SDS011;19843;51.040;13.782;2022-08-18T02:16:21;4.80;;;4.65;;
33505;SDS011;19843;51.040;13.782;2022-08-18T02:18:48;5.68;;;5.47;;
33505;SDS011;19843;51.040;13.782;2022-08-18T02:21:16;5.25;;;5.03;;
33505;SDS011;19843;51.040;13.782;2022-08-18T02:23:46;4.38;;;4.18;;
33505;SDS011;19843;51.040;13.782;2022-08-18T02:26:19;4.63;;;4.32;;
33505;SDS011;19843;51.040;13.782;2022-08-18T02:28:49;4.45;;;4.25;;
33505;SDS011;19843;51.040;13.782;2022-08-18T02:31:18;3.67;;;3.58;;
33505;SDS011;19843;51.040;13.782;2022-08-18T02:33:47;4.00;;;3.70;;
33505;SDS011;19843;51.040;13.782;2022-08-18T02:36:17;3.70;;;3.60;;
33505;SDS011;19843;51.040;13.782;2022-08-18T02:38:45;3.85;;;3.65;;
33505;SDS011;19843;51.040;13.782;2022-08-18T02:41:24;3.63;;;3.53;;
33505;SDS011;19843;51.040;13.782;2022-08-18T02:43:56;3.53;;;3.25;;
33505;SDS011;19843;51.040;13.782;2022-08-18T02:46:24;3.08;;;2.97;;
33505;SDS011;19843;51.040;13.782;2022-08-18T02:48:55;3.15;;;3.05;;
33505;SDS011;19843;51.040;13.782;2022-08-18T02:51:23;3.22;;;3.13;;
33505;SDS011;19843;51.040;13.782;2022-08-18T02:53:51;2.80;;;2.70;;
33505;SDS011;19843;51.040;13.782;2022-08-18T02:56:20;2.65;;;2.55;;
33505;SDS011;19843;51.040;13.782;2022-08-18T02:59:08;2.15;;;2.13;;
33505;SDS011;19843;51.040;13.782;2022-08-18T03:01:39;1.83;;;1.77;;
33505;SDS011;19843;51.040;13.782;2022-08-18T03:04:09;1.95;;;1.85;;
33505;SDS011;19843;51.040;13.782;2022-08-18T03:06:39;2.42;;;2.33;;
33505;SDS011;19843;51.040;13.782;2022-08-18T03:09:09;1.80;;;1.80;;
33505;SDS011;19843;51.040;13.782;2022-08-18T03:11:38;2.05;;;1.95;;
33505;SDS011;19843;51.040;13.782;2022-08-18T03:14:10;1.88;;;1.88;;
33505;SDS011;19843;51.040;13.782;2022-08-18T03:16:38;2.00;;;1.90;;
33505;SDS011;19843;51.040;13.782;2022-08-18T03:19:20;1.40;;;1.40;;
33505;SDS011;19843;51.040;13.782;2022-08-18T03:21:47;1.52;;;1.33;;
33505;SDS011;19843;51.040;13.782;2022-08-18T03:24:15;1.60;;;1.60;;
33505;SDS011;19843;51.040;13.782;2022-08-18T03:26:49;1.67;;;1.67;;
33505;SDS011;19843;51.040;13.782;2022-08-18T03:29:19;2.13;;;2.03;;
33505;SDS011;19843;51.040;13.782;2022-08-18T03:31:47;2.30;;;2.20;;
33505;SDS011;19843;51.040;13.782;2022-08-18T03:34:16;2.28;;;2.28;;
33505;SDS011;19843;51.040;13.782;2022-08-18T03:36:45;2.65;;;2.55;;
33505;SDS011;19843;51.040;13.782;2022-08-18T03:39:15;2.63;;;2.53;;
33505;SDS011;19843;51.040;13.782;2022-08-18T03:41:44;2.42;;;2.33;;
33505;SDS011;19843;51.040;13.782;2022-08-18T03:44:27;2.42;;;2.33;;
33505;SDS011;19843;51.040;13.782;2022-08-18T03:46:56;2.60;;;2.50;;
33505;SDS011;19843;51.040;13.782;2022-08-18T03:49:24;2.35;;;2.28;;
33505;SDS011;19843;51.040;13.782;2022-08-18T03:51:52;2.83;;;2.72;;
33505;SDS011;19843;51.040;13.782;2022-08-18T03:54:19;3.08;;;2.97;;
33505;SDS011;19843;51.040;13.782;2022-08-18T03:56:47;3.13;;;3.03;;
33505;SDS011;19843;51.040;13.782;2022-08-18T03:59:16;4.30;;;3.85;;
33505;SDS011;19843;51.040;13.782;2022-08-18T04:01:47;3.42;;;3.22;;
33505;SDS011;19843;51.040;13.782;2022-08-18T04:04:19;3.13;;;3.03;;
33505;SDS011;19843;51.040;13.782;2022-08-18T04:06:49;3.13;;;3.03;;
33505;SDS011;19843;51.040;13.782;2022-08-18T04:09:19;3.50;;;3.40;;
33505;SDS011;19843;51.040;13.782;2022-08-18T04:11:47;3.83;;;3.55;;
33505;SDS011;19843;51.040;13.782;2022-08-18T04:14:16;3.53;;;3.42;;
33505;SDS011;19843;51.040;13.782;2022-08-18T04:16:44;4.20;;;3.90;;
33505;SDS011;19843;51.040;13.782;2022-08-18T04:19:15;3.92;;;3.83;;
33505;SDS011;19843;51.040;13.782;2022-08-18T04:21:53;2.78;;;2.67;;
33505;SDS011;19843;51.040;13.782;2022-08-18T04:24:22;3.53;;;3.22;;
33505;SDS011;19843;51.040;13.782;2022-08-18T04:26:51;2.80;;;2.70;;
33505;SDS011;19843;51.040;13.782;2022-08-18T04:29:19;2.90;;;2.80;;
33505;SDS011;19843;51.040;13.782;2022-08-18T04:31:49;2.00;;;1.90;;
33505;SDS011;19843;51.040;13.782;2022-08-18T04:34:18;1.48;;;1.48;;
33505;SDS011;19843;51.040;13.782;2022-08-18T04:36:48;1.10;;;1.10;;
33505;SDS011;19843;51.040;13.782;2022-08-18T04:39:19;1.20;;;1.20;;
33505;SDS011;19843;51.040;13.782;2022-08-18T04:41:47;1.00;;;1.00;;
33505;SDS011;19843;51.040;13.782;2022-08-18T04:44:15;1.00;;;1.00;;
33505;SDS011;19843;51.040;13.782;2022-08-18T04:46:44;1.30;;;1.20;;
33505;SDS011;19843;51.040;13.782;2022-08-18T04:49:15;1.45;;;1.10;;
33505;SDS011;19843;51.040;13.782;2022-08-18T04:51:44;1.02;;;0.93;;
33505;SDS011;19843;51.040;13.782;2022-08-18T04:54:54;0.80;;;0.80;;
33505;SDS011;19843;51.040;13.782;2022-08-18T04:57:21;0.80;;;0.80;;
33505;SDS011;19843;51.040;13.782;2022-08-18T04:59:49;1.23;;;1.23;;
33505;SDS011;19843;51.040;13.782;2022-08-18T05:02:18;1.98;;;1.88;;
33505;SDS011;19843;51.040;13.782;2022-08-18T05:04:50;2.95;;;2.83;;
33505;SDS011;19843;51.040;13.782;2022-08-18T05:07:18;3.15;;;3.05;;
33505;SDS011;19843;51.040;13.782;2022-08-18T05:09:47;3.05;;;2.95;;
33505;SDS011;19843;51.040;13.782;2022-08-18T05:12:15;2.75;;;2.65;;
33505;SDS011;19843;51.040;13.782;2022-08-18T05:14:45;3.05;;;2.95;;
33505;SDS011;19843;51.040;13.782;2022-08-18T05:17:13;2.78;;;2.67;;
33505;SDS011;19843;51.040;13.782;2022-08-18T05:19:42;2.53;;;2.42;;
33505;SDS011;19843;51.040;13.782;2022-08-18T05:22:13;2.80;;;2.70;;
33505;SDS011;19843;51.040;13.782;2022-08-18T05:24:51;2.70;;;2.60;;
33505;SDS011;19843;51.040;13.782;2022-08-18T05:27:18;3.05;;;2.95;;
33505;SDS011;19843;51.040;13.782;2022-08-18T05:29:46;1.90;;;1.90;;
33505;SDS011;19843;51.040;13.782;2022-08-18T05:32:17;1.55;;;1.55;;
33505;SDS011;19843;51.040;13.782;2022-08-18T05:35:05;1.55;;;1.55;;
33505;SDS011;19843;51.040;13.782;2022-08-18T05:37:39;1.50;;;1.50;;
33505;SDS011;19843;51.040;13.782;2022-08-18T05:40:13;2.10;;;2.00;;
33505;SDS011;19843;51.040;13.782;2022-08-18T05:42:41;2.30;;;2.15;;
33505;SDS011;19843;51.040;13.782;2022-08-18T05:45:10;1.90;;;1.70;;
33505;SDS011;19843;51.040;13.782;2022-08-18T05:47:41;2.00;;;1.77;;
33505;SDS011;19843;51.040;13.782;2022-08-18T05:50:10;2.03;;;1.92;;
33505;SDS011;19843;51.040;13.782;2022-08-18T05:52:42;2.22;;;2.13;;
33505;SDS011;19843;51.040;13.782;2022-08-18T05:55:16;1.92;;;1.90;;
33505;SDS011;19843;51.040;13.782;2022-08-18T05:58:14;2.45;;;2.15;;
33505;SDS011;19843;51.040;13.782;2022-08-18T06:00:46;2.38;;;2.28;;
33505;SDS011;19843;51.040;13.782;2022-08-18T06:03:25;2.45;;;2.08;;
33505;SDS011;19843;51.040;13.782;2022-08-18T06:06:12;2.60;;;2.50;;
33505;SDS011;19843;51.040;13.782;2022-08-18T06:08:46;2.22;;;2.13;;
33505;SDS011;19843;51.040;13.782;2022-08-18T06:11:18;2.55;;;2.35;;
33505;SDS011;19843;51.040;13.782;2022-08-18T06:13:48;2.83;;;2.72;;
33505;SDS011;19843;51.040;13.782;2022-08-18T06:16:26;2.47;;;2.28;;
33505;SDS011;19843;51.040;13.782;2022-08-18T06:19:07;1.50;;;1.40;;
33505;SDS011;19843;51.040;13.782;2022-08-18T06:21:52;2.05;;;1.05;;
33505;SDS011;19843;51.040;13.782;2022-08-18T06:24:31;1.38;;;1.20;;
33505;SDS011;19843;51.040;13.782;2022-08-18T06:27:05;1.55;;;1.30;;
33505;SDS011;19843;51.040;13.782;2022-08-18T06:29:47;1.30;;;1.30;;
33505;SDS011;19843;51.040;13.782;2022-08-18T06:32:23;2.60;;;1.85;;
33505;SDS011;19843;51.040;13.782;2022-08-18T06:35:01;3.08;;;2.97;;
33505;SDS011;19843;51.040;13.782;2022-08-18T06:37:39;4.07;;;3.88;;
33505;SDS011;19843;51.040;13.782;2022-08-18T06:40:29;4.47;;;4.28;;
33505;SDS011;19843;51.040;13.782;2022-08-18T06:42:57;3.58;;;3.28;;
33505;SDS011;19843;51.040;13.782;2022-08-18T06:45:30;2.38;;;2.25;;
33505;SDS011;19843;51.040;13.782;2022-08-18T06:48:06;2.13;;;2.03;;
33505;SDS011;19843;51.040;13.782;2022-08-18T06:50:46;1.50;;;1.50;;
33505;SDS011;19843;51.040;13.782;2022-08-18T06:53:16;1.40;;;1.30;;
33505;SDS011;19843;51.040;13.782;2022-08-18T06:55:54;1.25;;;1.15;;
33505;SDS011;19843;51.040;13.782;2022-08-18T06:58:24;1.75;;;1.48;;
33505;SDS011;19843;51.040;13.782;2022-08-18T07:00:56;2.20;;;2.00;;
33505;SDS011;19843;51.040;13.782;2022-08-18T07:03:39;2.45;;;1.80;;
33505;SDS011;19843;51.040;13.782;2022-08-18T07:06:22;2.38;;;1.65;;
33505;SDS011;19843;51.040;13.782;2022-08-18T07:08:55;2.10;;;1.98;;
33505;SDS011;19843;51.040;13.782;2022-08-18T07:11:59;2.10;;;2.00;;
33505;SDS011;19843;51.040;13.782;2022-08-18T07:14:29;2.47;;;1.73;;
33505;SDS011;19843;51.040;13.782;2022-08-18T07:17:07;2.30;;;2.10;;
33505;SDS011;19843;51.040;13.782;2022-08-18T07:19:36;2.33;;;2.13;;
33505;SDS011;19843;51.040;13.782;2022-08-18T07:22:05;2.67;;;2.58;;
33505;SDS011;19843;51.040;13.782;2022-08-18T07:24:35;2.65;;;2.55;;
33505;SDS011;19843;51.040;13.782;2022-08-18T07:27:08;2.60;;;2.40;;
33505;SDS011;19843;51.040;13.782;2022-08-18T07:29:38;3.67;;;2.58;;
33505;SDS011;19843;51.040;13.782;2022-08-18T07:32:12;2.50;;;2.30;;
33505;SDS011;19843;51.040;13.782;2022-08-18T07:34:47;2.08;;;1.88;;
33505;SDS011;19843;51.040;13.782;2022-08-18T07:37:22;2.03;;;1.93;;
33505;SDS011;19843;51.040;13.782;2022-08-18T07:39:54;4.25;;;2.58;;
33505;SDS011;19843;51.040;13.782;2022-08-18T07:42:30;2.75;;;2.40;;
33505;SDS011;19843;51.040;13.782;2022-08-18T07:45:25;2.42;;;2.33;;
33505;SDS011;19843;51.040;13.782;2022-08-18T07:47:58;4.32;;;2.40;;
33505;SDS011;19843;51.040;13.782;2022-08-18T07:50:54;2.30;;;2.20;;
33505;SDS011;19843;51.040;13.782;2022-08-18T07:53:37;2.13;;;2.03;;
33505;SDS011;19843;51.040;13.782;2022-08-18T07:56:22;2.28;;;2.28;;
33505;SDS011;19843;51.040;13.782;2022-08-18T07:59:00;2.50;;;2.40;;
33505;SDS011;19843;51.040;13.782;2022-08-18T08:01:37;3.17;;;2.97;;
33505;SDS011;19843;51.040;13.782;2022-08-18T08:04:12;3.05;;;2.95;;
33505;SDS011;19843;51.040;13.782;2022-08-18T08:06:52;2.95;;;2.70;;
33505;SDS011;19843;51.040;13.782;2022-08-18T08:09:45;2.70;;;2.60;;
33505;SDS011;19843;51.040;13.782;2022-08-18T08:12:21;3.65;;;3.45;;
33505;SDS011;19843;51.040;13.782;2022-08-18T08:14:59;3.65;;;3.35;;
33505;SDS011;19843;51.040;13.782;2022-08-18T08:17:39;3.60;;;3.38;;
33505;SDS011;19843;51.040;13.782;2022-08-18T08:20:13;3.63;;;3.53;;
33505;SDS011;19843;51.040;13.782;2022-08-18T08:22:51;2.67;;;2.47;;
33505;SDS011;19843;51.040;13.782;2022-08-18T08:25:28;2.60;;;2.50;;
33505;SDS011;19843;51.040;13.782;2022-08-18T08:28:14;2.65;;;1.70;;
33505;SDS011;19843;51.040;13.782;2022-08-18T08:30:52;2.10;;;2.00;;
33505;SDS011;19843;51.040;13.782;2022-08-18T08:33:49;1.52;;;1.45;;
33505;SDS011;19843;51.040;13.782;2022-08-18T08:36:22;1.70;;;1.60;;
33505;SDS011;19843;51.040;13.782;2022-08-18T08:38:54;2.30;;;2.17;;
33505;SDS011;19843;51.040;13.782;2022-08-18T08:41:27;1.95;;;1.65;;
33505;SDS011;19843;51.040;13.782;2022-08-18T08:44:00;2.00;;;1.90;;
33505;SDS011;19843;51.040;13.782;2022-08-18T08:46:36;2.30;;;2.20;;
33505;SDS011;19843;51.040;13.782;2022-08-18T08:49:13;1.20;;;1.20;;
33505;SDS011;19843;51.040;13.782;2022-08-18T08:51:52;1.00;;;1.00;;
33505;SDS011;19843;51.040;13.782;2022-08-18T08:54:26;1.10;;;0.98;;
33505;SDS011;19843;51.040;13.782;2022-08-18T08:57:03;2.05;;;1.10;;
33505;SDS011;19843;51.040;13.782;2022-08-18T08:59:35;1.30;;;1.20;;
33505;SDS011;19843;51.040;13.782;2022-08-18T09:02:12;2.70;;;2.60;;
33505;SDS011;19843;51.040;13.782;2022-08-18T09:05:13;1.30;;;1.20;;
33505;SDS011;19843;51.040;13.782;2022-08-18T09:07:49;2.58;;;1.35;;
33505;SDS011;19843;51.040;13.782;2022-08-18T09:10:37;2.25;;;1.70;;
33505;SDS011;19843;51.040;13.782;2022-08-18T09:13:37;2.65;;;1.73;;
33505;SDS011;19843;51.040;13.782;2022-08-18T09:16:19;1.52;;;1.50;;
33505;SDS011;19843;51.040;13.782;2022-08-18T09:18:58;3.63;;;1.65;;
33505;SDS011;19843;51.040;13.782;2022-08-18T09:21:46;1.40;;;1.30;;
33505;SDS011;19843;51.040;13.782;2022-08-18T09:24:20;1.43;;;1.30;;
33505;SDS011;19843;51.040;13.782;2022-08-18T09:26:51;1.40;;;1.38;;
33505;SDS011;19843;51.040;13.782;2022-08-18T09:29:45;1.50;;;1.40;;
33505;SDS011;19843;51.040;13.782;2022-08-18T09:35:52;1.35;;;1.30;;
33505;SDS011;19843;51.040;13.782;2022-08-18T09:38:35;1.80;;;1.70;;
33505;SDS011;19843;51.040;13.782;2022-08-18T09:41:31;1.80;;;1.80;;
33505;SDS011;19843;51.040;13.782;2022-08-18T09:44:55;2.22;;;2.13;;
33505;SDS011;19843;51.040;13.782;2022-08-18T09:50:55;1.77;;;1.77;;
33505;SDS011;19843;51.040;13.782;2022-08-18T09:59:49;2.00;;;1.92;;
33505;SDS011;19843;51.040;13.782;2022-08-18T10:05:39;3.38;;;2.20;;
33505;SDS011;19843;51.040;13.782;2022-08-18T10:11:56;2.15;;;2.05;;
33505;SDS011;19843;51.040;13.782;2022-08-18T10:14:52;2.47;;;2.28;;
33505;SDS011;19843;51.040;13.782;2022-08-18T10:17:44;3.45;;;2.08;;
33505;SDS011;19843;51.040;13.782;2022-08-18T10:20:25;2.08;;;1.85;;
33505;SDS011;19843;51.040;13.782;2022-08-18T10:23:07;1.88;;;1.77;;
33505;SDS011;19843;51.040;13.782;2022-08-18T10:25:37;2.08;;;1.98;;
33505;SDS011;19843;51.040;13.782;2022-08-18T10:28:07;2.20;;;2.10;;
33505;SDS011;19843;51.040;13.782;2022-08-18T10:30:44;1.95;;;1.85;;
33505;SDS011;19843;51.040;13.782;2022-08-18T10:33:59;1.80;;;1.63;;
33505;SDS011;19843;51.040;13.782;2022-08-18T10:36:46;2.83;;;1.92;;
33505;SDS011;19843;51.040;13.782;2022-08-18T10:39:19;2.05;;;1.95;;
33505;SDS011;19843;51.040;13.782;2022-08-18T10:42:00;1.75;;;1.75;;
33505;SDS011;19843;51.040;13.782;2022-08-18T10:44:39;1.95;;;1.85;;
33505;SDS011;19843;51.040;13.782;2022-08-18T10:47:18;2.33;;;2.10;;
33505;SDS011;19843;51.040;13.782;2022-08-18T10:49:58;2.58;;;2.40;;
33505;SDS011;19843;51.040;13.782;2022-08-18T10:52:34;3.10;;;2.90;;
33505;SDS011;19843;51.040;13.782;2022-08-18T10:55:35;2.58;;;2.47;;
33505;SDS011;19843;51.040;13.782;2022-08-18T11:01:25;2.55;;;2.45;;
33505;SDS011;19843;51.040;13.782;2022-08-18T11:04:04;3.95;;;2.67;;
33505;SDS011;19843;51.040;13.782;2022-08-18T11:07:03;2.40;;;2.30;;
33505;SDS011;19843;51.040;13.782;2022-08-18T11:09:35;2.95;;;2.75;;
33505;SDS011;19843;51.040;13.782;2022-08-18T11:12:09;2.80;;;2.70;;
33505;SDS011;19843;51.040;13.782;2022-08-18T11:14:41;2.30;;;2.20;;
33505;SDS011;19843;51.040;13.782;2022-08-18T11:17:28;2.33;;;2.13;;
33505;SDS011;19843;51.040;13.782;2022-08-18T11:20:06;2.28;;;2.05;;
33505;SDS011;19843;51.040;13.782;2022-08-18T11:22:37;3.25;;;1.92;;
33505;SDS011;19843;51.040;13.782;2022-08-18T11:25:16;2.08;;;1.85;;
33505;SDS011;19843;51.040;13.782;2022-08-18T11:27:47;2.03;;;1.80;;
33505;SDS011;19843;51.040;13.782;2022-08-18T11:30:15;2.40;;;1.63;;
33505;SDS011;19843;51.040;13.782;2022-08-18T11:32:44;2.20;;;2.10;;
33505;SDS011;19843;51.040;13.782;2022-08-18T11:35:28;2.33;;;2.00;;
33505;SDS011;19843;51.040;13.782;2022-08-18T11:38:00;4.75;;;1.90;;
33505;SDS011;19843;51.040;13.782;2022-08-18T11:40:31;2.20;;;2.00;;
33505;SDS011;19843;51.040;13.782;2022-08-18T11:43:24;1.95;;;1.85;;
33505;SDS011;19843;51.040;13.782;2022-08-18T11:46:10;2.45;;;2.22;;
33505;SDS011;19843;51.040;13.782;2022-08-18T11:48:43;3.33;;;2.47;;
33505;SDS011;19843;51.040;13.782;2022-08-18T11:51:20;3.10;;;2.58;;
33505;SDS011;19843;51.040;13.782;2022-08-18T11:53:51;2.47;;;2.38;;
33505;SDS011;19843;51.040;13.782;2022-08-18T11:56:25;2.22;;;2.17;;
33505;SDS011;19843;51.040;13.782;2022-08-18T11:58:59;3.13;;;2.15;;
33505;SDS011;19843;51.040;13.782;2022-08-18T12:01:29;3.53;;;2.40;;
33505;SDS011;19843;51.040;13.782;2022-08-18T12:04:24;2.63;;;2.42;;
33505;SDS011;19843;51.040;13.782;2022-08-18T12:06:59;2.92;;;2.72;;
33505;SDS011;19843;51.040;13.782;2022-08-18T12:09:35;3.33;;;3.13;;
33505;SDS011;19843;51.040;13.782;2022-08-18T12:12:25;3.25;;;3.13;;
33505;SDS011;19843;51.040;13.782;2022-08-18T12:14:57;3.45;;;3.25;;
33505;SDS011;19843;51.040;13.782;2022-08-18T12:17:47;3.33;;;3.13;;
33505;SDS011;19843;51.040;13.782;2022-08-18T12:20:18;3.30;;;3.20;;
33505;SDS011;19843;51.040;13.782;2022-08-18T12:22:46;3.20;;;3.10;;
33505;SDS011;19843;51.040;13.782;2022-08-18T12:25:15;3.03;;;2.92;;
33505;SDS011;19843;51.040;13.782;2022-08-18T12:28:04;4.45;;;3.38;;
33505;SDS011;19843;51.040;13.782;2022-08-18T12:30:37;4.03;;;3.78;;
33505;SDS011;19843;51.040;13.782;2022-08-18T12:33:07;3.70;;;3.50;;
33505;SDS011;19843;51.040;13.782;2022-08-18T12:35:37;3.60;;;3.30;;
33505;SDS011;19843;51.040;13.782;2022-08-18T12:38:07;3.70;;;3.58;;
33505;SDS011;19843;51.040;13.782;2022-08-18T12:40:39;2.83;;;2.72;;
33505;SDS011;19843;51.040;13.782;2022-08-18T12:43:07;4.43;;;2.45;;
33505;SDS011;19843;51.040;13.782;2022-08-18T12:45:35;2.80;;;2.25;;
33505;SDS011;19843;51.040;13.782;2022-08-18T12:48:06;2.45;;;2.35;;
33505;SDS011;19843;51.040;13.782;2022-08-18T12:50:34;2.33;;;2.10;;
33505;SDS011;19843;51.040;13.782;2022-08-18T12:53:20;2.25;;;2.05;;
33505;SDS011;19843;51.040;13.782;2022-08-18T12:56:10;2.10;;;1.90;;
33505;SDS011;19843;51.040;13.782;2022-08-18T12:58:45;2.53;;;2.42;;
33505;SDS011;19843;51.040;13.782;2022-08-18T13:01:13;2.88;;;2.67;;
33505;SDS011;19843;51.040;13.782;2022-08-18T13:03:42;3.17;;;2.85;;
33505;SDS011;19843;51.040;13.782;2022-08-18T13:06:32;3.33;;;3.13;;
33505;SDS011;19843;51.040;13.782;2022-08-18T13:09:02;3.75;;;3.55;;
33505;SDS011;19843;51.040;13.782;2022-08-18T13:11:41;3.50;;;3.30;;
33505;SDS011;19843;51.040;13.782;2022-08-18T13:14:09;4.18;;;3.97;;
33505;SDS011;19843;51.040;13.782;2022-08-18T13:16:39;3.92;;;3.60;;
33505;SDS011;19843;51.040;13.782;2022-08-18T13:19:20;3.78;;;3.58;;
33505;SDS011;19843;51.040;13.782;2022-08-18T13:21:49;3.50;;;3.25;;
33505;SDS011;19843;51.040;13.782;2022-08-18T13:24:16;3.50;;;3.40;;
33505;SDS011;19843;51.040;13.782;2022-08-18T13:26:47;3.70;;;3.50;;
33505;SDS011;19843;51.040;13.782;2022-08-18T13:29:17;4.88;;;4.10;;
33505;SDS011;19843;51.040;13.782;2022-08-18T13:31:47;4.22;;;3.88;;
33505;SDS011;19843;51.040;13.782;2022-08-18T13:34:23;5.18;;;4.32;;
33505;SDS011;19843;51.040;13.782;2022-08-18T13:36:55;5.65;;;4.00;;
33505;SDS011;19843;51.040;13.782;2022-08-18T13:39:23;6.40;;;6.03;;
33505;SDS011;19843;51.040;13.782;2022-08-18T13:42:00;3.63;;;3.53;;
33505;SDS011;19843;51.040;13.782;2022-08-18T13:44:48;3.88;;;3.65;;
33505;SDS011;19843;51.040;13.782;2022-08-18T13:47:20;4.20;;;4.00;;
33505;SDS011;19843;51.040;13.782;2022-08-18T13:49:48;5.00;;;4.60;;
33505;SDS011;19843;51.040;13.782;2022-08-18T13:52:23;4.40;;;4.20;;
33505;SDS011;19843;51.040;13.782;2022-08-18T13:55:00;4.47;;;4.07;;
33505;SDS011;19843;51.040;13.782;2022-08-18T13:57:33;4.50;;;4.30;;
33505;SDS011;19843;51.040;13.782;2022-08-18T14:00:02;4.22;;;3.42;;
33505;SDS011;19843;51.040;13.782;2022-08-18T14:02:38;3.60;;;3.40;;
33505;SDS011;19843;51.040;13.782;2022-08-18T14:05:06;3.40;;;3.30;;
33505;SDS011;19843;51.040;13.782;2022-08-18T14:07:36;4.28;;;3.83;;
33505;SDS011;19843;51.040;13.782;2022-08-18T14:10:07;4.75;;;4.45;;
33505;SDS011;19843;51.040;13.782;2022-08-18T14:12:38;4.70;;;4.43;;
33505;SDS011;19843;51.040;13.782;2022-08-18T14:15:08;4.57;;;4.30;;
33505;SDS011;19843;51.040;13.782;2022-08-18T14:17:42;4.38;;;4.18;;
33505;SDS011;19843;51.040;13.782;2022-08-18T14:20:10;3.50;;;3.28;;
33505;SDS011;19843;51.040;13.782;2022-08-18T14:22:56;3.20;;;3.10;;
33505;SDS011;19843;51.040;13.782;2022-08-18T14:25:49;3.20;;;3.10;;
33505;SDS011;19843;51.040;13.782;2022-08-18T14:28:34;4.05;;;3.95;;
33505;SDS011;19843;51.040;13.782;2022-08-18T14:31:06;5.95;;;5.55;;
33505;SDS011;19843;51.040;13.782;2022-08-18T14:33:34;6.78;;;6.38;;
33505;SDS011;19843;51.040;13.782;2022-08-18T14:36:17;5.75;;;5.50;;
33505;SDS011;19843;51.040;13.782;2022-08-18T14:38:55;6.07;;;5.78;;
33505;SDS011;19843;51.040;13.782;2022-08-18T14:41:22;7.07;;;6.47;;
33505;SDS011;19843;51.040;13.782;2022-08-18T14:43:50;6.22;;;5.93;;
33505;SDS011;19843;51.040;13.782;2022-08-18T14:46:38;6.57;;;3.80;;
33505;SDS011;19843;51.040;13.782;2022-08-18T14:49:19;3.88;;;3.55;;
33505;SDS011;19843;51.040;13.782;2022-08-18T14:51:54;3.85;;;2.60;;
33505;SDS011;19843;51.040;13.782;2022-08-18T14:54:22;2.38;;;2.20;;
33505;SDS011;19843;51.040;13.782;2022-08-18T14:56:55;2.00;;;1.90;;
33505;SDS011;19843;51.040;13.782;2022-08-18T14:59:22;1.73;;;1.63;;
33505;SDS011;19843;51.040;13.782;2022-08-18T15:01:50;2.67;;;1.80;;
33505;SDS011;19843;51.040;13.782;2022-08-18T15:04:20;1.60;;;1.50;;
33505;SDS011;19843;51.040;13.782;2022-08-18T15:06:47;1.52;;;1.42;;
33505;SDS011;19843;51.040;13.782;2022-08-18T15:09:22;1.80;;;1.23;;
33505;SDS011;19843;51.040;13.782;2022-08-18T15:11:52;3.70;;;1.45;;
33505;SDS011;19843;51.040;13.782;2022-08-18T15:14:21;2.17;;;1.52;;
33505;SDS011;19843;51.040;13.782;2022-08-18T15:16:58;1.23;;;1.13;;
33505;SDS011;19843;51.040;13.782;2022-08-18T15:19:28;1.45;;;1.08;;
33505;SDS011;19843;51.040;13.782;2022-08-18T15:22:15;1.95;;;1.20;;
33505;SDS011;19843;51.040;13.782;2022-08-18T15:25:01;2.78;;;1.30;;
33505;SDS011;19843;51.040;13.782;2022-08-18T15:27:49;1.70;;;1.60;;
33505;SDS011;19843;51.040;13.782;2022-08-18T15:30:18;2.85;;;1.98;;
33505;SDS011;19843;51.040;13.782;2022-08-18T15:32:46;4.32;;;2.50;;
33505;SDS011;19843;51.040;13.782;2022-08-18T15:35:17;2.67;;;2.28;;
33505;SDS011;19843;51.040;13.782;2022-08-18T15:37:46;2.45;;;1.85;;
33505;SDS011;19843;51.040;13.782;2022-08-18T15:40:17;1.83;;;1.73;;
33505;SDS011;19843;51.040;13.782;2022-08-18T15:43:00;1.98;;;1.88;;